createdAt,value
2023-03-31T00:01:19.668Z,57.13
2023-03-31T00:03:25.128Z,56.77
2023-03-31T00:05:26.593Z,57.38
2023-03-31T00:07:27.891Z,57.11
2023-03-31T00:09:29.973Z,57.30
2023-03-31T00:11:31.394Z,57.17
2023-03-31T00:13:32.712Z,56.91
2023-03-31T00:15:34.004Z,57.64
2023-03-31T00:17:35.340Z,57.40
2023-03-31T00:19:36.648Z,57.11
2023-03-31T00:21:37.947Z,57.27
2023-03-31T00:23:39.279Z,56.94
2023-03-31T00:25:43.732Z,57.15
2023-03-31T00:27:45.092Z,56.95
2023-03-31T00:29:47.293Z,57.21
2023-03-31T00:31:48.625Z,57.08
2023-03-31T00:33:50.034Z,57.13
2023-03-31T00:35:51.951Z,57.05
2023-03-31T00:37:53.997Z,57.13
2023-03-31T00:39:55.292Z,57.60
2023-03-31T00:41:56.587Z,57.47
2023-03-31T00:43:57.911Z,57.25
2023-03-31T00:45:59.236Z,57.15
2023-03-31T00:48:01.117Z,57.24
2023-03-31T00:50:02.422Z,57.27
2023-03-31T00:52:05.156Z,57.67
2023-03-31T00:54:06.450Z,57.21
2023-03-31T00:56:08.221Z,57.20
2023-03-31T00:58:09.695Z,57.67
2023-03-31T01:00:17.278Z,57.34
2023-03-31T01:02:20.816Z,57.36
2023-03-31T01:04:22.888Z,57.36
2023-03-31T01:06:25.337Z,57.00
2023-03-31T01:08:27.160Z,56.76
2023-03-31T01:10:28.486Z,56.85
2023-03-31T01:12:29.777Z,57.34
2023-03-31T01:14:31.125Z,57.46
2023-03-31T01:16:34.037Z,56.86
2023-03-31T01:18:35.447Z,57.25
2023-03-31T01:20:36.757Z,56.96
2023-03-31T01:22:39.018Z,56.93
2023-03-31T01:24:40.312Z,57.29
2023-03-31T01:26:42.094Z,57.16
2023-03-31T01:28:43.422Z,57.45
2023-03-31T01:30:44.808Z,57.60
2023-03-31T01:32:46.419Z,57.39
2023-03-31T01:34:47.769Z,57.88
2023-03-31T01:36:49.069Z,57.25
2023-03-31T01:38:50.431Z,57.26
2023-03-31T01:40:51.845Z,57.16
2023-03-31T01:42:53.278Z,57.12
2023-03-31T01:44:54.623Z,57.20
2023-03-31T01:46:55.920Z,56.81
2023-03-31T01:48:57.211Z,56.66
2023-03-31T01:50:58.504Z,57.26
2023-03-31T01:52:59.798Z,56.59
2023-03-31T01:55:01.146Z,56.96
2023-03-31T01:57:02.466Z,56.54
2023-03-31T01:59:03.855Z,56.81
2023-03-31T02:01:05.914Z,56.62
2023-03-31T02:03:08.018Z,56.89
2023-03-31T02:05:09.914Z,56.52
2023-03-31T02:07:12.103Z,56.74
2023-03-31T02:09:13.471Z,56.70
2023-03-31T02:11:14.814Z,57.14
2023-03-31T02:13:16.190Z,56.91
2023-03-31T02:15:18.337Z,57.31
2023-03-31T02:17:19.654Z,57.01
2023-03-31T02:19:20.949Z,57.19
2023-03-31T02:21:22.850Z,56.84
2023-03-31T02:23:26.583Z,56.96
2023-03-31T02:25:28.079Z,56.83
2023-03-31T02:27:29.422Z,57.26
2023-03-31T02:29:30.867Z,57.17
2023-03-31T02:31:32.306Z,57.03
2023-03-31T02:33:33.658Z,56.86
2023-03-31T02:35:36.780Z,56.78
2023-03-31T02:37:38.157Z,56.60
2023-03-31T02:39:39.497Z,56.82
2023-03-31T02:41:41.304Z,56.75
2023-03-31T02:43:42.821Z,57.08
2023-03-31T02:45:44.209Z,56.99
2023-03-31T02:47:45.702Z,57.18
2023-03-31T02:49:47.174Z,57.35
2023-03-31T02:51:48.627Z,57.17
2023-03-31T02:53:49.967Z,57.69
2023-03-31T02:55:51.383Z,57.49
2023-03-31T02:57:52.713Z,57.72
2023-03-31T02:59:54.003Z,57.39
2023-03-31T03:01:55.294Z,57.49
2023-03-31T03:03:56.601Z,57.75
2023-03-31T03:05:58.859Z,57.81
2023-03-31T03:08:00.421Z,57.45
2023-03-31T03:10:02.174Z,57.15
2023-03-31T03:12:03.485Z,57.19
2023-03-31T03:14:06.144Z,56.96
2023-03-31T03:16:07.535Z,57.20
2023-03-31T03:18:08.980Z,56.79
2023-03-31T03:20:10.706Z,56.47
2023-03-31T03:22:12.031Z,56.60
2023-03-31T03:24:13.324Z,56.77
2023-03-31T03:26:14.623Z,56.80
2023-03-31T03:28:15.912Z,56.51
2023-03-31T03:30:17.254Z,56.48
2023-03-31T03:32:18.560Z,56.33
2023-03-31T03:34:20.316Z,56.41
2023-03-31T03:36:23.070Z,56.47
2023-03-31T03:38:24.555Z,57.33
2023-03-31T03:40:25.926Z,56.53
2023-03-31T03:42:27.222Z,56.79
2023-03-31T03:44:28.564Z,57.19
2023-03-31T03:46:29.936Z,57.05
2023-03-31T03:48:31.247Z,56.94
2023-03-31T03:50:32.601Z,57.49
2023-03-31T03:52:33.906Z,56.99
2023-03-31T03:54:35.204Z,57.54
2023-03-31T03:56:36.542Z,57.28
2023-03-31T03:58:37.986Z,57.45
2023-03-31T04:00:39.324Z,57.11
2023-03-31T04:02:40.885Z,57.28
2023-03-31T04:04:42.378Z,57.32
2023-03-31T04:06:43.730Z,57.08
2023-03-31T04:08:45.023Z,57.31
2023-03-31T04:10:46.577Z,57.28
2023-03-31T04:12:47.921Z,57.01
2023-03-31T04:14:49.276Z,57.22
2023-03-31T04:16:50.623Z,57.20
2023-03-31T04:18:52.906Z,57.52
2023-03-31T04:21:06.576Z,57.89
2023-03-31T04:23:09.755Z,57.54
2023-03-31T04:25:15.020Z,57.32
2023-03-31T04:27:17.767Z,57.46
2023-03-31T04:29:22.643Z,58.18
2023-03-31T04:31:26.878Z,57.98
2023-03-31T04:33:28.197Z,57.46
2023-03-31T04:35:42.840Z,56.47
2023-03-31T04:37:44.291Z,56.51
2023-03-31T04:39:46.714Z,56.23
2023-03-31T04:41:48.052Z,56.33
2023-03-31T04:43:49.377Z,55.80
2023-03-31T04:45:50.816Z,55.82
2023-03-31T04:47:52.242Z,55.62
2023-03-31T04:49:53.738Z,55.39
2023-03-31T04:51:55.289Z,55.02
2023-03-31T04:53:56.590Z,55.15
2023-03-31T04:55:57.882Z,54.95
2023-03-31T04:57:59.188Z,55.37
2023-03-31T05:00:00.567Z,54.75
2023-03-31T05:02:02.273Z,54.93
2023-03-31T05:04:03.721Z,54.63
2023-03-31T05:06:05.327Z,54.74
2023-03-31T05:08:06.900Z,54.55
2023-03-31T05:10:08.258Z,54.62
2023-03-31T05:12:09.556Z,54.69
2023-03-31T05:14:11.107Z,54.95
2023-03-31T05:16:14.462Z,54.74
2023-03-31T05:18:15.999Z,55.06
2023-03-31T05:20:17.694Z,54.64
2023-03-31T05:22:20.748Z,54.84
2023-03-31T05:24:22.300Z,54.74
2023-03-31T05:26:25.110Z,55.29
2023-03-31T05:28:26.402Z,55.36
2023-03-31T05:30:27.719Z,54.89
2023-03-31T05:32:29.103Z,54.99
2023-03-31T05:34:30.869Z,55.09
2023-03-31T05:36:32.296Z,54.99
2023-03-31T05:38:34.655Z,55.16
2023-03-31T05:40:35.970Z,54.97
2023-03-31T05:42:37.292Z,55.03
2023-03-31T05:44:38.593Z,55.33
2023-03-31T05:46:39.934Z,55.10
2023-03-31T05:48:41.307Z,55.08
2023-03-31T05:50:43.127Z,55.17
2023-03-31T05:52:44.528Z,55.36
2023-03-31T05:54:45.817Z,55.10
2023-03-31T05:56:47.156Z,54.86
2023-03-31T05:58:48.525Z,54.76
2023-03-31T06:00:49.851Z,54.95
2023-03-31T06:02:51.534Z,54.52
2023-03-31T06:04:53.150Z,54.60
2023-03-31T06:06:55.952Z,54.28
2023-03-31T06:08:57.278Z,54.26
2023-03-31T06:10:58.643Z,54.15
2023-03-31T06:13:00.033Z,54.24
2023-03-31T06:15:01.480Z,54.14
2023-03-31T06:17:02.856Z,53.80
2023-03-31T06:19:04.147Z,53.80
2023-03-31T06:21:05.935Z,54.13
2023-03-31T06:23:07.439Z,54.00
2023-03-31T06:25:08.768Z,53.68
2023-03-31T06:27:10.327Z,53.70
2023-03-31T06:29:11.662Z,54.01
2023-03-31T06:31:13.041Z,53.85
2023-03-31T06:33:14.513Z,53.54
2023-03-31T06:35:16.752Z,53.68
2023-03-31T06:37:18.103Z,53.48
2023-03-31T06:39:19.397Z,53.74
2023-03-31T06:41:21.259Z,53.73
2023-03-31T06:43:22.707Z,53.94
2023-03-31T06:45:24.054Z,53.98
2023-03-31T06:47:25.439Z,53.90
2023-03-31T06:49:26.902Z,53.78
2023-03-31T06:51:29.669Z,53.71
2023-03-31T06:53:32.141Z,53.66
2023-03-31T06:55:33.969Z,53.84
2023-03-31T06:57:35.320Z,53.67
2023-03-31T06:59:36.717Z,53.96
2023-03-31T07:01:39.235Z,53.78
2023-03-31T07:03:40.827Z,54.01
2023-03-31T07:05:42.237Z,53.90
2023-03-31T07:07:46.179Z,54.14
2023-03-31T07:09:47.752Z,54.16
2023-03-31T07:11:49.042Z,53.93
2023-03-31T07:13:50.373Z,54.16
2023-03-31T07:15:51.746Z,54.45
2023-03-31T07:18:02.654Z,54.60
2023-03-31T07:20:04.532Z,54.27
2023-03-31T07:22:06.178Z,54.42
2023-03-31T07:24:07.573Z,54.23
2023-03-31T07:26:08.945Z,54.39
2023-03-31T07:28:10.284Z,54.13
2023-03-31T07:30:11.619Z,54.32
2023-03-31T07:32:13.128Z,54.06
2023-03-31T07:34:14.484Z,53.97
2023-03-31T07:36:16.076Z,53.82
2023-03-31T07:38:17.693Z,53.80
2023-03-31T07:40:18.997Z,54.00
2023-03-31T07:42:20.643Z,53.67
2023-03-31T07:44:23.402Z,53.49
2023-03-31T07:46:24.859Z,53.63
2023-03-31T07:48:28.733Z,53.65
2023-03-31T07:50:30.405Z,53.56
2023-03-31T07:52:31.785Z,53.57
2023-03-31T07:54:33.104Z,53.57
2023-03-31T07:56:34.417Z,53.53
2023-03-31T07:58:35.898Z,53.05
2023-03-31T08:00:37.251Z,53.20
2023-03-31T08:02:38.710Z,53.14
2023-03-31T08:04:42.275Z,53.12
2023-03-31T08:06:46.497Z,53.41
2023-03-31T08:08:47.792Z,53.34
2023-03-31T08:10:49.133Z,52.99
2023-03-31T08:12:50.432Z,52.81
2023-03-31T08:14:51.724Z,52.91
2023-03-31T08:16:55.351Z,53.04
2023-03-31T08:18:56.653Z,52.91
2023-03-31T08:20:58.002Z,53.18
2023-03-31T08:22:59.337Z,52.77
2023-03-31T08:25:00.690Z,52.79
2023-03-31T08:27:02.059Z,52.88
2023-03-31T08:29:04.152Z,53.25
2023-03-31T08:31:05.919Z,53.45
2023-03-31T08:33:07.855Z,53.46
2023-03-31T08:35:09.739Z,53.08
2023-03-31T08:37:11.204Z,53.63
2023-03-31T08:39:13.061Z,53.46
2023-03-31T08:41:14.399Z,53.57
2023-03-31T08:43:15.727Z,53.15
2023-03-31T08:45:17.084Z,53.54
2023-03-31T08:47:18.424Z,53.36
2023-03-31T08:49:19.772Z,53.70
2023-03-31T08:51:21.876Z,53.65
2023-03-31T08:53:23.175Z,53.50
2023-03-31T08:55:24.489Z,53.58
2023-03-31T08:57:25.851Z,53.83
2023-03-31T08:59:30.433Z,53.65
2023-03-31T09:01:37.963Z,54.07
2023-03-31T09:03:45.941Z,53.82
2023-03-31T09:06:12.544Z,54.09
2023-03-31T09:08:08.622Z,53.84
2023-03-31T09:10:09.923Z,53.73
2023-03-31T09:12:11.253Z,53.71
2023-03-31T09:14:12.538Z,53.52
2023-03-31T09:16:16.309Z,53.21
2023-03-31T09:18:18.083Z,53.43
2023-03-31T09:20:19.438Z,53.66
2023-03-31T09:22:21.000Z,53.36
2023-03-31T09:24:23.678Z,53.49
2023-03-31T09:26:25.081Z,53.02
2023-03-31T09:28:27.222Z,53.37
2023-03-31T09:30:28.525Z,53.11
2023-03-31T09:32:30.059Z,53.29
2023-03-31T09:34:31.777Z,52.94
2023-03-31T09:36:33.204Z,53.46
2023-03-31T09:38:34.518Z,53.35
2023-03-31T09:40:35.952Z,53.10
2023-03-31T09:42:37.315Z,53.28
2023-03-31T09:44:38.658Z,53.28
2023-03-31T09:46:40.010Z,53.54
2023-03-31T09:48:41.620Z,53.21
2023-03-31T09:50:42.903Z,53.18
2023-03-31T09:52:44.218Z,53.34
2023-03-31T09:54:45.595Z,53.24
2023-03-31T09:56:48.700Z,53.28
2023-03-31T09:58:50.184Z,53.67
2023-03-31T10:00:51.720Z,53.30
2023-03-31T10:02:53.118Z,53.55
2023-03-31T10:04:54.541Z,53.29
2023-03-31T10:06:55.849Z,53.58
2023-03-31T10:08:58.323Z,53.42
2023-03-31T10:11:01.270Z,53.62
2023-03-31T10:13:02.565Z,53.56
2023-03-31T10:15:03.871Z,53.51
2023-03-31T10:17:05.780Z,53.60
2023-03-31T10:19:07.095Z,53.53
2023-03-31T10:21:08.641Z,53.56
2023-03-31T10:23:10.036Z,53.73
2023-03-31T10:25:11.544Z,53.70
2023-03-31T10:27:12.983Z,53.61
2023-03-31T10:29:14.360Z,53.50
2023-03-31T10:31:16.053Z,53.64
2023-03-31T10:33:22.592Z,53.38
2023-03-31T10:35:24.790Z,53.63
2023-03-31T10:37:26.198Z,53.61
2023-03-31T10:39:27.513Z,53.28
2023-03-31T10:41:28.905Z,53.59
2023-03-31T10:43:30.326Z,53.54
2023-03-31T10:45:37.885Z,53.59
2023-03-31T10:47:39.779Z,53.51
2023-03-31T10:49:41.159Z,53.44
2023-03-31T10:51:45.256Z,53.15
2023-03-31T10:53:46.879Z,53.66
2023-03-31T10:55:48.180Z,53.52
2023-03-31T10:57:49.469Z,53.40
2023-03-31T10:59:52.074Z,53.47
2023-03-31T11:01:53.785Z,53.40
2023-03-31T11:03:55.824Z,53.34
2023-03-31T11:05:57.279Z,53.43
2023-03-31T11:07:58.583Z,53.30
2023-03-31T11:09:59.918Z,53.53
2023-03-31T11:12:01.229Z,53.51
2023-03-31T11:14:02.588Z,53.46
2023-03-31T11:16:03.982Z,53.69
2023-03-31T11:18:05.435Z,53.41
2023-03-31T11:20:07.223Z,53.53
2023-03-31T11:22:09.806Z,53.73
2023-03-31T11:24:11.102Z,53.36
2023-03-31T11:26:12.427Z,53.54
2023-03-31T11:28:13.725Z,53.60
2023-03-31T11:30:15.069Z,53.44
2023-03-31T11:32:16.852Z,53.37
2023-03-31T11:34:19.044Z,53.46
2023-03-31T11:36:20.419Z,53.37
2023-03-31T11:38:23.899Z,53.26
2023-03-31T11:40:26.160Z,53.22
2023-03-31T11:42:27.465Z,53.25
2023-03-31T11:44:28.804Z,53.07
2023-03-31T11:46:30.434Z,53.16
2023-03-31T11:48:31.773Z,53.55
2023-03-31T11:50:33.065Z,53.42
2023-03-31T11:52:34.417Z,53.32
2023-03-31T11:54:35.925Z,53.54
2023-03-31T11:56:37.227Z,53.61
2023-03-31T11:58:38.513Z,53.61
2023-03-31T12:00:39.802Z,53.40
2023-03-31T12:02:41.499Z,53.56
2023-03-31T12:04:42.879Z,53.55
2023-03-31T12:06:46.608Z,53.16
2023-03-31T12:08:47.959Z,53.29
2023-03-31T12:10:49.339Z,53.49
2023-03-31T12:12:51.086Z,53.03
2023-03-31T12:14:52.382Z,52.98
2023-03-31T12:16:53.725Z,53.17
2023-03-31T12:18:55.116Z,53.17
2023-03-31T12:20:56.443Z,53.04
2023-03-31T12:22:57.768Z,53.00
2023-03-31T12:24:59.120Z,52.82
2023-03-31T12:27:00.560Z,52.72
2023-03-31T12:29:04.132Z,52.74
2023-03-31T12:31:05.567Z,52.69
2023-03-31T12:33:07.172Z,52.80
2023-03-31T12:35:08.626Z,53.17
2023-03-31T12:37:11.124Z,52.89
2023-03-31T12:39:12.484Z,52.62
2023-03-31T12:41:15.022Z,52.58
2023-03-31T12:43:16.510Z,52.83
2023-03-31T12:45:17.868Z,52.92
2023-03-31T12:47:19.215Z,52.87
2023-03-31T12:49:20.551Z,53.03
2023-03-31T12:51:21.907Z,52.97
2023-03-31T12:53:24.213Z,52.97
2023-03-31T12:55:25.550Z,52.95
2023-03-31T12:57:27.052Z,52.99
2023-03-31T12:59:29.136Z,52.96
2023-03-31T13:01:30.664Z,52.93
2023-03-31T13:03:33.958Z,52.75
2023-03-31T13:05:35.477Z,52.84
2023-03-31T13:07:37.086Z,52.91
2023-03-31T13:09:38.371Z,52.66
2023-03-31T13:11:39.716Z,52.77
2023-03-31T13:13:54.224Z,52.63
2023-03-31T13:16:02.219Z,52.89
2023-03-31T13:18:03.530Z,52.97
2023-03-31T13:20:05.216Z,53.00
2023-03-31T13:22:06.890Z,53.23
2023-03-31T13:24:08.200Z,53.58
2023-03-31T13:26:09.552Z,53.41
2023-03-31T13:28:11.168Z,53.62
2023-03-31T13:30:12.520Z,53.38
2023-03-31T13:32:13.889Z,53.44
2023-03-31T13:34:15.401Z,53.36
2023-03-31T13:36:16.780Z,53.26
2023-03-31T13:38:18.101Z,53.16
2023-03-31T13:40:19.441Z,53.04
2023-03-31T13:42:20.835Z,52.90
2023-03-31T13:44:22.139Z,52.78
2023-03-31T13:46:26.406Z,52.77
2023-03-31T13:48:27.766Z,52.91
2023-03-31T13:50:29.083Z,52.53
2023-03-31T13:52:30.592Z,52.81
2023-03-31T13:54:31.963Z,52.13
2023-03-31T13:56:33.276Z,52.21
2023-03-31T13:58:35.586Z,51.57
2023-03-31T14:00:37.100Z,51.33
2023-03-31T14:02:38.663Z,51.26
2023-03-31T14:04:40.048Z,51.77
2023-03-31T14:06:41.406Z,51.99
2023-03-31T14:08:42.753Z,52.45
2023-03-31T14:10:44.047Z,52.23
2023-03-31T14:12:47.702Z,51.65
2023-03-31T14:14:49.205Z,52.09
2023-03-31T14:16:50.543Z,52.87
2023-03-31T14:18:52.894Z,52.35
2023-03-31T14:20:54.230Z,52.54
2023-03-31T14:22:58.588Z,52.38
2023-03-31T14:24:59.883Z,52.63
2023-03-31T14:27:02.245Z,52.09
2023-03-31T14:29:03.548Z,51.55
2023-03-31T14:31:05.110Z,53.65
2023-03-31T14:33:06.492Z,53.48
2023-03-31T14:35:07.946Z,53.53
2023-03-31T14:37:09.644Z,54.05
2023-03-31T14:39:17.011Z,53.08
2023-03-31T14:41:20.136Z,53.02
2023-03-31T14:43:21.657Z,53.00
2023-03-31T14:45:25.794Z,53.84
2023-03-31T14:47:32.086Z,53.74
2023-03-31T14:49:33.430Z,52.70
2023-03-31T14:51:34.723Z,53.51
2023-03-31T14:53:36.223Z,54.56
2023-03-31T14:55:54.223Z,54.16
2023-03-31T14:57:58.838Z,54.38
2023-03-31T15:00:00.742Z,54.65
2023-03-31T15:02:02.194Z,52.96
2023-03-31T15:04:07.192Z,52.30
2023-03-31T15:06:08.504Z,53.51
2023-03-31T15:08:18.977Z,53.21
2023-03-31T15:10:26.486Z,53.71
2023-03-31T15:12:27.808Z,54.38
2023-03-31T15:14:29.104Z,54.99
2023-03-31T15:16:30.579Z,55.39
2023-03-31T15:18:31.931Z,55.19
2023-03-31T15:20:35.077Z,55.11
2023-03-31T15:22:36.556Z,54.54
2023-03-31T15:24:37.876Z,54.77
2023-03-31T15:26:41.687Z,54.58
2023-03-31T15:28:43.794Z,54.45
2023-03-31T15:35:33.810Z,54.04
2023-03-31T15:37:35.114Z,53.88
2023-03-31T15:39:36.534Z,54.00
2023-03-31T15:41:37.917Z,54.24
2023-03-31T15:43:39.217Z,53.46
2023-03-31T15:45:40.666Z,52.95
2023-03-31T15:47:42.096Z,53.02
2023-03-31T15:49:44.034Z,53.12
2023-03-31T15:51:45.433Z,53.08
2023-03-31T15:53:46.754Z,53.67
2023-03-31T15:55:50.847Z,53.53
2023-03-31T15:57:52.147Z,53.31
2023-03-31T15:59:57.908Z,52.92
2023-03-31T16:02:00.042Z,54.43
2023-03-31T16:04:02.183Z,53.17
2023-03-31T16:06:03.484Z,53.64
2023-03-31T16:08:04.862Z,53.97
2023-03-31T16:10:06.409Z,54.43
2023-03-31T16:12:07.705Z,54.60
2023-03-31T16:14:09.003Z,54.66
2023-03-31T16:16:10.555Z,54.37
2023-03-31T16:18:12.085Z,54.18
2023-03-31T16:20:13.919Z,53.22
2023-03-31T16:22:15.399Z,54.48
2023-03-31T16:24:16.724Z,54.08
2023-03-31T16:26:18.035Z,53.60
2023-03-31T16:28:19.335Z,54.17
2023-03-31T16:30:21.128Z,54.18
2023-03-31T16:32:28.408Z,54.20
2023-03-31T16:34:29.730Z,54.35
2023-03-31T16:36:31.403Z,53.72
2023-03-31T16:38:32.757Z,53.74
2023-03-31T16:40:34.065Z,53.75
2023-03-31T16:42:35.385Z,54.10
2023-03-31T16:44:36.710Z,53.26
2023-03-31T16:46:38.055Z,53.53
2023-03-31T16:50:55.768Z,52.23
2023-03-31T16:52:57.189Z,51.71
2023-03-31T16:54:58.565Z,51.49
2023-03-31T16:57:00.258Z,51.99
2023-03-31T16:59:02.229Z,51.55
2023-03-31T17:01:04.130Z,51.91
2023-03-31T17:03:05.844Z,51.71
2023-03-31T17:05:13.259Z,52.43
2023-03-31T17:07:14.885Z,52.72
2023-03-31T17:09:16.257Z,52.80
2023-03-31T17:11:17.602Z,53.61
2023-03-31T17:13:18.893Z,54.43
2023-03-31T17:15:20.243Z,54.63
2023-03-31T17:17:21.934Z,54.72
2023-03-31T17:19:23.451Z,54.77
2023-03-31T17:21:26.217Z,54.75
2023-03-31T17:23:27.904Z,54.94
2023-03-31T17:25:29.363Z,55.20
2023-03-31T17:27:30.925Z,54.99
2023-03-31T17:29:32.406Z,55.09
2023-03-31T17:31:33.739Z,54.97
2023-03-31T17:33:35.036Z,54.85
2023-03-31T17:35:36.403Z,54.69
2023-03-31T17:37:38.571Z,54.86
2023-03-31T17:39:40.550Z,54.31
2023-03-31T17:41:41.886Z,54.62
2023-03-31T17:43:43.203Z,54.33
2023-03-31T17:45:44.499Z,53.83
2023-03-31T17:47:46.374Z,54.24
2023-03-31T17:49:47.746Z,53.73
2023-03-31T17:51:49.099Z,53.48
2023-03-31T17:53:50.901Z,54.27
2023-03-31T17:55:55.281Z,53.44
2023-03-31T17:57:57.361Z,53.17
2023-03-31T17:59:58.659Z,51.94
2023-03-31T18:02:01.094Z,52.36
2023-03-31T18:04:02.926Z,51.65
2023-03-31T18:06:04.803Z,52.55
2023-03-31T18:08:06.215Z,52.52
2023-03-31T18:10:07.513Z,51.78
2023-03-31T18:12:09.706Z,53.50
2023-03-31T18:14:11.199Z,53.74
2023-03-31T18:16:15.762Z,51.79
2023-03-31T18:18:18.647Z,53.26
2023-03-31T18:20:19.959Z,52.49
2023-03-31T18:22:21.579Z,52.48
2023-03-31T18:24:22.950Z,52.12
2023-03-31T18:26:24.261Z,52.34
2023-03-31T18:28:25.555Z,53.07
2023-03-31T18:30:27.898Z,53.23
2023-03-31T18:32:29.312Z,53.78
2023-03-31T18:34:30.673Z,54.53
2023-03-31T18:36:33.028Z,54.23
2023-03-31T18:38:34.523Z,54.91
2023-03-31T18:40:38.700Z,54.91
2023-03-31T18:42:43.247Z,55.64
2023-03-31T18:44:44.763Z,56.15
2023-03-31T18:46:46.164Z,55.95
2023-03-31T18:48:48.501Z,56.46
2023-03-31T18:50:51.305Z,55.86
2023-03-31T18:52:54.574Z,56.22
2023-03-31T18:54:56.609Z,56.59
2023-03-31T18:56:57.954Z,55.88
2023-03-31T18:58:59.584Z,56.05
2023-03-31T19:01:01.287Z,55.38
2023-03-31T19:03:02.947Z,55.98
2023-03-31T19:05:04.311Z,54.37
2023-03-31T19:07:05.905Z,54.46
2023-03-31T19:09:10.523Z,54.83
2023-03-31T19:11:12.712Z,54.77
2023-03-31T19:13:14.071Z,54.92
2023-03-31T19:15:15.500Z,55.07
2023-03-31T19:17:17.811Z,55.76
2023-03-31T19:19:19.207Z,56.20
2023-03-31T19:21:20.969Z,56.29
2023-03-31T19:23:22.282Z,55.96
2023-03-31T19:25:24.308Z,55.74
2023-03-31T19:27:25.633Z,56.25
2023-03-31T19:29:30.850Z,56.38
2023-03-31T19:31:38.464Z,56.56
2023-03-31T19:33:39.909Z,56.87
2023-03-31T19:35:41.242Z,56.36
2023-03-31T19:37:42.596Z,56.23
2023-03-31T19:39:44.580Z,55.71
2023-03-31T19:41:45.960Z,55.31
2023-03-31T19:43:47.919Z,55.27
2023-03-31T19:45:52.015Z,54.68
2023-03-31T19:47:53.424Z,55.32
2023-03-31T19:49:54.767Z,54.44
2023-03-31T19:51:56.562Z,54.90
2023-03-31T19:53:58.568Z,54.54
2023-03-31T19:55:59.920Z,54.26
2023-03-31T19:58:01.803Z,54.83
2023-03-31T20:00:04.215Z,54.66
2023-03-31T20:02:06.891Z,54.85
2023-03-31T20:04:08.805Z,54.66
2023-03-31T20:06:10.219Z,54.98
2023-03-31T20:08:11.513Z,54.79
2023-03-31T20:10:13.997Z,54.38
2023-03-31T20:12:15.734Z,55.04
2023-03-31T20:14:17.512Z,55.19
2023-03-31T20:16:19.137Z,55.36
2023-03-31T20:18:20.563Z,54.90
2023-03-31T20:20:22.325Z,54.94
2023-03-31T20:22:23.630Z,55.26
2023-03-31T20:24:33.959Z,55.44
2023-03-31T20:26:35.450Z,55.26
2023-03-31T20:28:36.948Z,55.65
2023-03-31T20:30:38.257Z,56.24
2023-03-31T20:32:39.587Z,55.66
2023-03-31T20:34:41.151Z,55.60
2023-03-31T20:36:42.562Z,55.72
2023-03-31T20:38:53.175Z,55.76
2023-03-31T20:40:55.196Z,55.95
2023-03-31T20:42:56.491Z,55.80
2023-03-31T20:44:57.794Z,56.27
2023-03-31T20:47:03.124Z,56.75
2023-03-31T20:49:09.893Z,57.17
2023-03-31T20:51:11.479Z,57.40
2023-03-31T20:53:12.832Z,57.52
2023-03-31T20:55:14.141Z,57.70
2023-03-31T20:57:15.524Z,57.52
2023-03-31T20:59:16.999Z,57.88
2023-03-31T21:01:18.461Z,57.73
2023-03-31T21:03:19.811Z,57.80
2023-03-31T21:05:21.388Z,57.20
2023-03-31T21:07:22.771Z,56.57
2023-03-31T21:09:24.085Z,57.18
2023-03-31T21:11:25.427Z,55.88
2023-03-31T21:13:26.820Z,54.69
2023-03-31T21:15:28.121Z,55.27
2023-03-31T21:17:29.419Z,55.96
2023-03-31T21:19:31.889Z,55.93
2023-03-31T21:21:35.271Z,56.10
2023-03-31T21:23:36.630Z,56.14
2023-03-31T21:25:37.939Z,55.98
2023-03-31T21:27:39.239Z,56.57
2023-03-31T21:29:40.533Z,56.15
2023-03-31T21:31:42.134Z,56.12
2023-03-31T21:33:43.581Z,55.95
2023-03-31T21:35:44.931Z,55.77
2023-03-31T21:37:46.515Z,55.34
2023-03-31T21:39:47.816Z,55.33
2023-03-31T21:41:49.099Z,55.09
2023-03-31T21:43:51.347Z,55.27
2023-03-31T21:45:54.495Z,55.24
2023-03-31T21:47:55.827Z,55.20
2023-03-31T21:49:57.279Z,55.25
2023-03-31T21:51:59.351Z,55.44
2023-03-31T21:54:00.659Z,55.83
2023-03-31T21:56:02.236Z,55.35
2023-03-31T21:58:04.505Z,55.14
2023-03-31T22:00:06.233Z,55.57
2023-03-31T22:02:07.586Z,55.63
2023-03-31T22:04:09.373Z,55.61
2023-03-31T22:06:11.224Z,55.49
2023-03-31T22:08:12.548Z,56.09
2023-03-31T22:10:13.879Z,55.98
2023-03-31T22:12:15.494Z,55.83
2023-03-31T22:14:16.798Z,55.67
2023-03-31T22:16:18.182Z,55.85
2023-03-31T22:18:19.504Z,56.07
2023-03-31T22:20:21.074Z,55.95
2023-03-31T22:22:22.397Z,56.24
2023-03-31T22:24:23.707Z,55.60
2023-03-31T22:26:24.997Z,56.77
2023-03-31T22:28:26.332Z,56.46
2023-03-31T22:30:27.773Z,56.02
2023-03-31T22:32:29.152Z,56.40
2023-03-31T22:34:33.400Z,56.07
2023-03-31T22:36:34.702Z,55.87
2023-03-31T22:38:36.024Z,56.33
2023-03-31T22:40:37.335Z,56.28
2023-03-31T22:42:38.718Z,55.85
2023-03-31T22:44:41.222Z,56.44
2023-03-31T22:46:42.593Z,56.04
2023-03-31T22:48:44.156Z,56.12
2023-03-31T22:50:45.708Z,56.29
2023-03-31T22:52:47.114Z,56.59
2023-03-31T22:54:48.408Z,57.59
2023-03-31T22:56:50.300Z,57.01
2023-03-31T22:58:51.669Z,56.59
2023-03-31T23:00:53.005Z,56.02
2023-03-31T23:02:54.413Z,55.98
2023-03-31T23:04:56.041Z,56.24
2023-03-31T23:06:57.651Z,55.99
2023-03-31T23:08:58.941Z,56.04
2023-03-31T23:11:00.784Z,55.11
2023-03-31T23:13:02.136Z,55.61
2023-03-31T23:15:03.902Z,55.36
2023-03-31T23:17:05.634Z,55.27
2023-03-31T23:19:06.987Z,55.02
2023-03-31T23:21:08.341Z,54.57
2023-03-31T23:23:09.632Z,54.89
2023-03-31T23:25:10.931Z,55.01
2023-03-31T23:27:12.228Z,54.82
2023-03-31T23:29:13.521Z,54.99
2023-03-31T23:31:15.363Z,54.51
2023-03-31T23:33:16.791Z,54.93
2023-03-31T23:35:18.136Z,54.79
2023-03-31T23:37:19.500Z,54.79
2023-03-31T23:39:21.519Z,54.84
2023-03-31T23:41:22.928Z,55.81
2023-03-31T23:43:25.285Z,55.38
2023-03-31T23:45:27.245Z,55.26
2023-03-31T23:47:28.664Z,55.70
2023-03-31T23:49:32.853Z,55.40
2023-03-31T23:51:34.193Z,55.91
2023-03-31T23:53:35.702Z,55.94
2023-03-31T23:55:38.025Z,56.14
2023-03-31T23:57:39.422Z,56.32
2023-03-31T23:59:40.721Z,56.00
